Time;durP1;ratioP1;P1;durP2;ratioP2;P2;SDS_P1;SDS_P2;PMS_P1;PMS_P2;Temp;Humidity;BMP_temperature;BMP_pressure;BME280_temperature;BME280_humidity;BME280_pressure;Samples;Min_cycle;Max_cycle;Signal;HPM_P1;HPM_P2
2022/06/15 00:02:21;;;;;;;4.38;2.65;;;;;;;12.31;100.00;101066.44;6234000;28;20820;-94
2022/06/15 00:05:23;;;;;;;4.93;2.50;;;;;;;12.31;100.00;101058.66;6235490;28;20613;-93
2022/06/15 00:08:25;;;;;;;4.82;2.60;;;;;;;12.27;100.00;101069.28;6238259;28;20044;-93
2022/06/15 00:11:33;;;;;;;6.53;2.55;;;;;;;12.25;100.00;101057.38;6244837;28;20605;-94
2022/06/15 00:14:35;;;;;;;5.47;2.60;;;;;;;12.23;100.00;101064.44;6239836;28;20561;-94
2022/06/15 00:17:37;;;;;;;4.55;2.80;;;;;;;12.24;100.00;101066.09;6226381;28;20049;-93
2022/06/15 00:20:39;;;;;;;6.35;3.10;;;;;;;12.20;100.00;101062.91;6235636;28;20056;-94
2022/06/15 00:23:41;;;;;;;5.55;2.85;;;;;;;12.20;100.00;101051.72;6226430;28;20045;-93
2022/06/15 00:26:43;;;;;;;5.90;2.50;;;;;;;12.17;100.00;101052.75;6245414;28;20415;-93
2022/06/15 00:29:45;;;;;;;7.70;3.05;;;;;;;12.13;100.00;101047.94;6246341;28;20130;-94
2022/06/15 00:32:48;;;;;;;2.95;2.42;;;;;;;12.11;100.00;101044.63;6250062;28;20041;-93
2022/06/15 00:35:59;;;;;;;5.60;3.22;;;;;;;12.05;100.00;101044.16;6234631;28;20049;-93
2022/06/15 00:39:03;;;;;;;8.10;3.10;;;;;;;12.09;100.00;101049.94;6239986;28;20042;-93
2022/06/15 00:42:05;;;;;;;5.68;2.70;;;;;;;12.07;100.00;101044.03;6242650;28;20051;-93
2022/06/15 00:45:08;;;;;;;3.72;2.42;;;;;;;12.05;100.00;101044.16;6248719;28;20038;-93
2022/06/15 00:48:10;;;;;;;3.95;2.60;;;;;;;12.01;100.00;101034.94;6223434;28;20099;-93
2022/06/15 00:51:14;;;;;;;4.68;2.70;;;;;;;11.97;100.00;101035.31;6229697;28;20046;-93
2022/06/15 00:54:17;;;;;;;4.85;2.38;;;;;;;11.92;100.00;101027.03;6236454;28;20072;-93
2022/06/15 00:57:20;;;;;;;4.93;2.60;;;;;;;11.88;100.00;101038.63;6248244;28;20049;-93
2022/06/15 01:00:23;;;;;;;4.13;2.63;;;;;;;11.83;100.00;101034.56;6238704;28;20041;-93
2022/06/15 01:03:26;;;;;;;3.65;2.70;;;;;;;11.82;100.00;101030.31;6235003;28;20029;-93
2022/06/15 01:06:49;;;;;;;4.63;2.78;;;;;;;11.77;100.00;101034.19;6236403;28;20061;-93
2022/06/15 01:10:21;;;;;;;5.95;2.85;;;;;;;11.72;100.00;101029.34;6227657;28;20658;-93
2022/06/15 01:13:43;;;;;;;4.05;2.95;;;;;;;11.66;100.00;101022.06;6260531;28;20328;-94
2022/06/15 01:17:11;;;;;;;4.90;2.70;;;;;;;11.62;100.00;101028.41;6229697;28;20049;-93
2022/06/15 01:20:47;;;;;;;6.18;2.70;;;;;;;11.58;100.00;101024.41;6233211;28;20072;-94
2022/06/15 01:24:11;;;;;;;5.00;3.05;;;;;;;11.55;100.00;101032.38;6248695;28;20508;-93
2022/06/15 01:27:49;;;;;;;6.13;3.58;;;;;;;11.52;100.00;101027.44;6240202;28;20491;-94
2022/06/15 01:31:29;;;;;;;4.85;3.28;;;;;;;11.50;100.00;101034.50;6189859;28;20047;-94
2022/06/15 01:34:54;;;;;;;4.57;2.85;;;;;;;11.51;100.00;101041.34;6183846;28;20084;-93
2022/06/15 01:38:22;;;;;;;5.43;3.10;;;;;;;11.49;100.00;101040.63;6205219;28;20751;-93
2022/06/15 01:41:31;;;;;;;6.90;3.00;;;;;;;11.44;100.00;101028.00;6174963;28;20053;-94
2022/06/15 01:44:40;;;;;;;4.60;2.92;;;;;;;11.44;100.00;101030.59;6196364;28;20069;-93
2022/06/15 01:47:44;;;;;;;4.60;3.10;;;;;;;11.44;100.00;101033.19;6168193;28;20053;-94
2022/06/15 01:50:56;;;;;;;4.45;3.00;;;;;;;11.40;100.00;101030.03;6166770;28;20058;-93
2022/06/15 01:54:04;;;;;;;4.82;2.95;;;;;;;11.38;100.00;101031.91;6194177;28;20173;-94
2022/06/15 01:57:08;;;;;;;3.20;2.60;;;;;;;11.31;100.00;101033.28;6194217;28;20058;-94
2022/06/15 02:00:19;;;;;;;5.47;3.28;;;;;;;11.31;100.00;101033.28;6180950;28;20060;-93
2022/06/15 02:03:46;;;;;;;6.05;2.80;;;;;;;11.29;100.00;101026.56;6199181;28;20137;-93
2022/06/15 02:07:15;;;;;;;7.50;3.10;;;;;;;11.26;100.00;101019.84;6227507;28;20610;-93
2022/06/15 02:10:31;;;;;;;7.78;3.40;;;;;;;11.25;100.00;101010.41;6242920;28;20144;-93
2022/06/15 02:13:49;;;;;;;5.90;3.20;;;;;;;11.23;100.00;101008.88;6247173;28;20053;-93
2022/06/15 02:16:56;;;;;;;5.15;3.60;;;;;;;11.19;100.00;101013.47;6235115;28;20077;-93
2022/06/15 02:20:05;;;;;;;4.78;3.50;;;;;;;11.15;100.00;101022.38;6239940;28;20063;-94
2022/06/15 02:23:11;;;;;;;5.65;3.55;;;;;;;11.12;100.00;101022.63;6242564;28;20075;-93
2022/06/15 02:26:17;;;;;;;8.00;3.65;;;;;;;11.10;100.00;101019.31;6229521;28;20061;-93
2022/06/15 02:29:24;;;;;;;7.53;3.90;;;;;;;11.11;100.00;101010.63;6226543;28;20095;-93
2022/06/15 02:32:27;;;;;;;6.25;3.58;;;;;;;11.08;100.00;101016.84;6236088;28;20411;-93
2022/06/15 02:35:29;;;;;;;5.85;3.67;;;;;;;11.07;100.00;101009.19;6230457;28;20045;-93
2022/06/15 02:38:35;;;;;;;4.63;3.40;;;;;;;11.05;100.00;101006.69;6237200;28;20629;-93
2022/06/15 02:41:37;;;;;;;3.90;3.28;;;;;;;11.02;100.00;101004.34;6233863;28;20045;-93
2022/06/15 02:44:42;;;;;;;6.97;3.58;;;;;;;10.94;100.00;101002.31;6246381;28;20048;-93
2022/06/15 02:47:45;;;;;;;4.90;3.00;;;;;;;10.93;100.00;100992.03;6238700;28;20639;-93
2022/06/15 02:51:07;;;;;;;4.55;3.38;;;;;;;10.86;100.00;100991.69;6244511;28;20139;-93
2022/06/15 02:54:30;;;;;;;5.28;3.30;;;;;;;10.86;100.00;100993.44;6239698;28;20060;-93
2022/06/15 02:57:44;;;;;;;6.00;3.70;;;;;;;10.87;100.00;100992.50;6233395;28;20749;-93
2022/06/15 03:00:49;;;;;;;4.43;3.53;;;;;;;10.83;100.00;100986.72;6232976;28;20054;-93
2022/06/15 03:03:54;;;;;;;8.30;3.50;;;;;;;10.81;100.00;100979.97;6235303;28;20152;-93
2022/06/15 03:07:00;;;;;;;6.07;3.55;;;;;;;10.84;100.00;100990.97;6213670;28;20049;-93
2022/06/15 03:10:04;;;;;;;6.82;3.63;;;;;;;10.83;100.00;100994.50;6242719;28;20159;-93
2022/06/15 03:13:07;;;;;;;7.90;4.63;;;;;;;10.77;100.00;100992.34;6229317;28;20045;-93
2022/06/15 03:16:10;;;;;;;6.10;3.35;;;;;;;10.80;100.00;100986.94;6228431;28;20086;-94
2022/06/15 03:19:16;;;;;;;5.63;3.95;;;;;;;10.81;100.00;100988.59;6216348;28;20637;-93
2022/06/15 03:22:26;;;;;;;7.97;3.70;;;;;;;10.85;100.00;100990.00;6236931;28;20064;-94
2022/06/15 03:25:33;;;;;;;7.75;3.60;;;;;;;10.84;100.00;100992.72;6243952;28;20078;-93
2022/06/15 03:28:36;;;;;;;6.53;3.50;;;;;;;10.84;100.00;101000.50;6242962;28;20057;-93
2022/06/15 03:31:42;;;;;;;5.30;3.22;;;;;;;10.83;100.00;101006.59;6245419;28;20451;-93
2022/06/15 03:34:45;;;;;;;7.63;3.60;;;;;;;10.86;100.00;101002.03;6232553;28;20048;-93
2022/06/15 03:37:49;;;;;;;6.57;3.30;;;;;;;10.87;100.00;100993.31;6229596;28;20148;-93
2022/06/15 03:41:03;;;;;;;6.60;3.53;;;;;;;10.89;100.00;100994.03;6240595;28;20114;-93
2022/06/15 03:44:05;;;;;;;9.15;3.55;;;;;;;10.91;100.00;100997.34;6238581;28;20042;-93
2022/06/15 03:47:13;;;;;;;5.28;3.65;;;;;;;10.89;100.00;100986.28;6216313;28;20137;-93
2022/06/15 03:50:16;;;;;;;5.25;3.65;;;;;;;10.93;100.00;100987.72;6255637;28;20044;-93
2022/06/15 03:53:24;;;;;;;9.45;4.90;;;;;;;10.96;100.00;100987.47;6246819;28;20049;-94
2022/06/15 03:56:47;;;;;;;7.95;5.00;;;;;;;11.01;100.00;100979.38;6277565;28;20041;-93
2022/06/15 03:59:58;;;;;;;7.97;5.15;;;;;;;11.05;100.00;100975.59;6226641;28;20087;-93
2022/06/15 04:03:19;;;;;;;8.68;4.80;;;;;;;11.12;100.00;100987.16;6229245;28;20060;-93
2022/06/15 04:06:25;;;;;;;6.55;3.58;;;;;;;11.14;100.00;100995.66;6229331;28;20052;-93
2022/06/15 04:09:28;;;;;;;8.73;3.60;;;;;;;11.12;100.00;100991.53;6232970;28;20046;-93
2022/06/15 04:12:42;;;;;;;5.82;3.47;;;;;;;11.18;100.00;100986.72;6216423;28;20064;-95
2022/06/15 04:15:47;;;;;;;7.70;3.90;;;;;;;11.22;100.00;100984.72;6239667;28;20161;-92
2022/06/15 04:18:51;;;;;;;7.03;3.88;;;;;;;11.23;100.00;100981.22;6240591;28;20139;-93
2022/06/15 04:21:54;;;;;;;7.03;3.78;;;;;;;11.25;100.00;100983.66;6234431;28;20098;-94
2022/06/15 04:24:56;;;;;;;7.00;3.55;;;;;;;11.31;100.00;100984.06;6251763;28;20067;-94
2022/06/15 04:27:59;;;;;;;6.57;3.22;;;;;;;11.35;100.00;100989.81;6246873;28;20040;-93
2022/06/15 04:31:02;;;;;;;7.53;3.72;;;;;;;11.39;100.00;100986.88;6246463;28;20046;-93
2022/06/15 04:34:15;;;;;;;4.68;3.45;;;;;;;11.49;100.00;100986.19;6222918;28;20102;-93
2022/06/15 04:37:17;;;;;;;6.25;3.47;;;;;;;11.48;100.00;100982.78;6233004;28;20053;-93
2022/06/15 04:40:23;;;;;;;4.10;3.10;;;;;;;11.50;100.00;100982.66;6220621;28;20061;-94
2022/06/15 04:43:25;;;;;;;7.50;3.53;;;;;;;11.50;100.00;100983.50;6227263;28;20041;-93
2022/06/15 04:46:28;;;;;;;7.15;3.17;;;;;;;11.52;100.00;100989.38;6226988;28;20094;-93
2022/06/15 04:49:33;;;;;;;5.90;3.63;;;;;;;11.53;100.00;100987.63;6235485;28;20171;-93
2022/06/15 04:52:38;;;;;;;7.50;3.50;;;;;;;11.56;100.00;100989.97;6205273;28;20065;-94
2022/06/15 04:55:40;;;;;;;4.95;3.15;;;;;;;11.60;100.00;100983.59;6231207;28;20530;-93
2022/06/15 04:58:43;;;;;;;8.35;4.25;;;;;;;11.64;100.00;100987.63;6221782;28;20045;-94
2022/06/15 05:01:45;;;;;;;7.38;3.50;;;;;;;11.70;100.00;100992.38;6235495;28;20049;-94
2022/06/15 05:04:50;;;;;;;7.95;4.05;;;;;;;11.77;100.00;100993.53;6233456;28;20054;-94
2022/06/15 05:07:53;;;;;;;6.40;3.55;;;;;;;11.81;100.00;100992.34;6224207;28;20071;-94
2022/06/15 05:10:55;;;;;;;5.22;3.63;;;;;;;11.87;100.00;100983.28;6223749;28;20045;-94
2022/06/15 05:13:57;;;;;;;8.93;4.18;;;;;;;11.93;100.00;100982.03;6235349;28;20510;-94
2022/06/15 05:17:02;;;;;;;8.85;4.38;;;;;;;11.96;100.00;100982.59;6236201;28;20049;-94
2022/06/15 05:20:07;;;;;;;7.43;4.28;;;;;;;12.04;100.00;100988.00;6231534;28;20652;-95
2022/06/15 05:23:13;;;;;;;9.75;4.30;;;;;;;12.10;100.00;100984.13;6240252;28;20049;-94
2022/06/15 05:26:34;;;;;;;9.07;3.97;;;;;;;12.17;100.00;100982.69;6230182;28;20049;-95
2022/06/15 05:29:37;;;;;;;7.03;3.83;;;;;;;12.24;100.00;100983.84;6238380;28;20053;-94
2022/06/15 05:32:46;;;;;;;6.65;3.75;;;;;;;12.27;100.00;100986.22;6241419;28;20068;-94
2022/06/15 05:35:51;;;;;;;8.18;4.60;;;;;;;12.34;100.00;100988.31;6254833;28;20050;-94
2022/06/15 05:38:58;;;;;;;10.23;4.03;;;;;;;12.40;100.00;100996.47;6240742;28;20049;-94
2022/06/15 05:42:03;;;;;;;8.88;4.20;;;;;;;12.46;100.00;100993.38;6225876;28;20053;-94
2022/06/15 05:45:06;;;;;;;10.32;4.70;;;;;;;12.51;100.00;100985.22;6245985;28;20042;-94
2022/06/15 05:48:09;;;;;;;5.75;3.60;;;;;;;12.58;100.00;100995.94;6239756;28;20045;-95
2022/06/15 05:51:13;;;;;;;7.10;3.83;;;;;;;12.63;100.00;100992.03;6243068;28;20419;-94
2022/06/15 05:54:16;;;;;;;6.05;4.00;;;;;;;12.70;100.00;100993.19;6214070;28;20071;-95
2022/06/15 05:57:21;;;;;;;8.32;4.38;;;;;;;12.79;100.00;100995.97;6221359;28;20053;-95
2022/06/15 06:00:25;;;;;;;5.65;3.63;;;;;;;12.83;100.00;100989.59;6224512;28;20171;-94
2022/06/15 06:03:27;;;;;;;9.45;3.40;;;;;;;12.89;100.00;100989.94;6230250;28;20501;-95
2022/06/15 06:06:31;;;;;;;11.77;4.15;;;;;;;12.99;100.00;100991.75;6226117;28;20560;-95
2022/06/15 06:09:33;;;;;;;5.82;3.60;;;;;;;13.07;100.00;100981.59;6225468;28;20037;-95
2022/06/15 06:12:35;;;;;;;4.72;3.38;;;;;;;13.14;100.00;100982.69;6240680;28;20045;-94
2022/06/15 06:15:37;;;;;;;8.75;4.15;;;;;;;13.20;100.00;100982.22;6240797;28;20056;-94
2022/06/15 06:18:39;;;;;;;5.53;3.75;;;;;;;13.25;100.00;100982.66;6218861;28;20483;-94
2022/06/15 06:21:44;;;;;;;6.82;3.38;;;;;;;13.33;100.00;100988.06;6238598;28;20418;-95
2022/06/15 06:24:51;;;;;;;4.20;3.15;;;;;;;13.39;100.00;100989.34;6214262;28;20391;-95
2022/06/15 06:27:53;;;;;;;6.10;3.67;;;;;;;13.50;100.00;100985.84;6225406;28;20048;-95
2022/06/15 06:30:57;;;;;;;6.57;3.20;;;;;;;13.56;100.00;100986.16;6236502;28;20466;-94
2022/06/15 06:34:00;;;;;;;6.85;3.28;;;;;;;13.65;100.00;100986.34;6225853;28;20081;-94
2022/06/15 06:37:05;;;;;;;7.53;3.45;;;;;;;13.73;100.00;100986.50;6218455;28;20120;-94
2022/06/15 06:40:15;;;;;;;9.07;3.55;;;;;;;13.83;100.00;100989.13;6217856;28;20106;-94
2022/06/15 06:43:18;;;;;;;8.68;4.00;;;;;;;13.88;100.00;100985.19;6223870;28;20038;-95
2022/06/15 06:46:20;;;;;;;7.55;3.60;;;;;;;13.99;100.00;100992.91;6216628;28;20041;-94
2022/06/15 06:49:24;;;;;;;5.13;3.35;;;;;;;14.05;100.00;100990.72;6227069;28;20048;-92
2022/06/15 06:52:26;;;;;;;6.15;3.55;;;;;;;14.14;100.00;101000.34;6239784;28;20478;-94
2022/06/15 06:55:28;;;;;;;7.40;3.45;;;;;;;14.23;100.00;100994.34;6221275;28;20130;-94
2022/06/15 06:58:30;;;;;;;6.10;3.42;;;;;;;14.29;100.00;100990.41;6222659;28;20077;-94
2022/06/15 07:01:34;;;;;;;7.65;3.47;;;;;;;14.34;100.00;100985.59;6235084;28;20478;-94
2022/06/15 07:04:36;;;;;;;8.98;3.38;;;;;;;14.40;100.00;100998.91;6238440;28;20090;-94
2022/06/15 07:07:38;;;;;;;7.60;3.60;;;;;;;14.48;100.00;100998.22;6227318;28;20057;-94
2022/06/15 07:10:41;;;;;;;8.20;3.30;;;;;;;14.54;100.00;100991.69;6233603;28;20045;-93
2022/06/15 07:13:45;;;;;;;8.82;3.38;;;;;;;14.65;100.00;100994.97;6247304;28;20535;-93
2022/06/15 07:16:47;;;;;;;5.95;3.58;;;;;;;14.73;100.00;100990.88;6248222;28;20048;-93
2022/06/15 07:19:49;;;;;;;6.82;3.30;;;;;;;14.86;100.00;100987.03;6244946;28;20102;-93
2022/06/15 07:22:51;;;;;;;7.43;3.35;;;;;;;14.99;100.00;100983.34;6238210;28;20037;-93
2022/06/15 07:25:53;;;;;;;6.47;3.70;;;;;;;15.14;100.00;100994.16;6216487;28;20501;-94
2022/06/15 07:28:55;;;;;;;5.50;3.10;;;;;;;15.24;100.00;100984.53;6244916;28;20142;-94
2022/06/15 07:31:57;;;;;;;8.80;3.67;;;;;;;15.35;100.00;100986.16;6241207;28;20068;-93
2022/06/15 07:34:59;;;;;;;8.52;4.10;;;;;;;15.46;100.00;100986.81;6236013;28;20517;-93
2022/06/15 07:38:01;;;;;;;4.18;3.17;;;;;;;15.55;100.00;100982.50;6222964;28;20074;-93
2022/06/15 07:41:26;;;;;;;8.05;3.90;;;;;;;15.67;100.00;100985.78;6256405;28;20094;-93
2022/06/15 07:44:28;;;;;;;7.78;3.30;;;;;;;15.73;100.00;100992.28;6217012;28;20048;-93
2022/06/15 07:50:52;;;;;;;6.10;2.95;;;;;;;15.89;100.00;100982.84;6222968;28;20129;-93
2022/06/15 07:53:54;;;;;;;8.60;3.47;;;;;;;15.96;98.95;100974.44;6226089;28;20173;-93
2022/06/15 07:56:59;;;;;;;5.63;2.90;;;;;;;16.09;100.00;100973.09;6217124;28;20049;-93
2022/06/15 08:00:05;;;;;;;4.30;2.90;;;;;;;16.23;98.56;100965.75;6254192;28;20049;-93
2022/06/15 08:03:15;;;;;;;5.47;2.88;;;;;;;16.28;96.37;100964.34;6250909;28;20057;-94
2022/06/15 08:06:18;;;;;;;6.22;2.95;;;;;;;16.41;96.40;100961.38;6233617;28;20074;-94
2022/06/15 08:09:21;;;;;;;9.02;3.17;;;;;;;16.66;96.77;100966.81;6229113;28;20042;-93
2022/06/15 08:12:23;;;;;;;3.55;2.65;;;;;;;16.70;95.83;100958.53;6228969;28;20037;-94
2022/06/15 08:15:25;;;;;;;8.82;3.38;;;;;;;16.76;95.04;100967.56;6245690;28;20754;-94
2022/06/15 08:18:32;;;;;;;8.23;3.13;;;;;;;16.81;93.26;100965.34;6213827;28;20080;-93
2022/06/15 08:21:37;;;;;;;4.82;2.85;;;;;;;16.90;92.56;100969.69;6228947;28;20521;-94
2022/06/15 08:24:41;;;;;;;6.40;3.00;;;;;;;16.96;92.89;100968.25;6229742;28;20041;-94
2022/06/15 08:27:44;;;;;;;6.35;2.83;;;;;;;17.06;92.15;100976.00;6230999;28;20041;-94
2022/06/15 08:30:47;;;;;;;4.88;2.83;;;;;;;17.16;89.27;100968.88;6225504;28;20055;-94
2022/06/15 08:33:49;;;;;;;5.68;2.80;;;;;;;17.24;87.91;100976.78;6232514;28;20045;-94
2022/06/15 08:36:53;;;;;;;5.00;2.60;;;;;;;17.30;88.94;100970.94;6221680;28;20439;-94
2022/06/15 08:39:54;;;;;;;5.78;3.17;;;;;;;17.42;89.22;100958.41;6224708;28;20045;-94
2022/06/15 08:43:01;;;;;;;9.30;2.80;;;;;;;17.51;88.04;100962.69;6235728;28;20045;-93
2022/06/15 08:46:10;;;;;;;8.77;2.80;;;;;;;17.55;86.59;100958.81;6229760;28;20214;-94
2022/06/15 08:49:46;;;;;;;6.00;3.00;;;;;;;17.67;86.42;100958.53;6227650;28;20459;-94
2022/06/15 08:53:00;;;;;;;4.20;2.90;;;;;;;17.82;83.78;100963.06;6225310;28;20035;-94
2022/06/15 08:56:29;;;;;;;5.28;2.80;;;;;;;17.93;82.90;100961.13;6226677;28;20033;-94
2022/06/15 08:59:44;;;;;;;5.53;2.80;;;;;;;18.11;82.50;100961.84;6228888;28;20496;-93
2022/06/15 09:03:13;;;;;;;6.30;2.60;;;;;;;18.30;84.30;100955.50;6225972;28;20291;-93
2022/06/15 09:06:34;;;;;;;4.95;2.47;;;;;;;18.58;80.95;100956.00;6239430;28;20033;-92
2022/06/15 09:09:55;;;;;;;5.00;2.80;;;;;;;18.66;78.05;100960.47;6243560;28;20791;-92
2022/06/15 09:13:44;;;;;;;3.10;2.17;;;;;;;18.73;75.83;100957.03;6230536;28;20503;-93
2022/06/15 09:17:01;;;;;;;4.35;2.60;;;;;;;18.90;77.09;100952.59;6246346;28;20061;-93
2022/06/15 09:20:09;;;;;;;7.28;2.58;;;;;;;19.03;73.58;100956.53;6262743;28;20083;-93
2022/06/15 09:23:20;;;;;;;5.25;2.38;;;;;;;19.08;68.60;100947.19;6255287;28;20115;-93
2022/06/15 09:26:35;;;;;;;7.22;2.67;;;;;;;19.10;69.83;100953.06;6268240;28;20064;-93
2022/06/15 09:30:17;;;;;;;5.53;2.05;;;;;;;19.21;71.10;100954.53;6228871;28;20092;-93
2022/06/15 09:33:29;;;;;;;3.90;2.10;;;;;;;19.28;66.34;100950.25;6239528;28;20086;-93
2022/06/15 09:36:43;;;;;;;3.28;2.05;;;;;;;19.64;72.40;100946.38;6229775;28;20048;-93
2022/06/15 09:39:46;;;;;;;10.25;2.38;;;;;;;19.76;63.37;100956.34;6241884;28;20108;-93
2022/06/15 09:43:10;;;;;;;3.00;2.08;;;;;;;19.80;62.39;100948.97;6238820;28;20048;-94
2022/06/15 09:46:29;;;;;;;4.15;1.98;;;;;;;19.87;62.74;100946.47;6257913;28;20440;-93
2022/06/15 09:50:29;;;;;;;4.93;1.88;;;;;;;19.97;63.88;100952.31;6252706;28;20075;-94
2022/06/15 09:53:59;;;;;;;4.50;2.20;;;;;;;20.08;60.70;100940.63;6175502;28;20088;-94
2022/06/15 09:57:01;;;;;;;3.63;1.95;;;;;;;20.18;60.23;100938.59;6193159;28;20139;-93
2022/06/15 10:00:06;;;;;;;4.40;2.05;;;;;;;20.27;58.34;100932.25;6180417;28;20069;-94
2022/06/15 10:03:31;;;;;;;4.78;2.17;;;;;;;20.36;61.72;100939.09;6174707;28;20640;-94
2022/06/15 10:06:45;;;;;;;5.05;2.08;;;;;;;20.56;61.80;100947.38;6169422;28;20057;-93
2022/06/15 10:10:16;;;;;;;3.55;1.83;;;;;;;20.71;58.22;100939.53;6170812;28;20054;-93
2022/06/15 10:13:18;;;;;;;4.38;2.40;;;;;;;20.79;61.59;100936.81;6176186;28;20535;-93
2022/06/15 10:16:28;;;;;;;3.70;2.10;;;;;;;20.84;57.33;100933.66;6171986;28;20086;-93
2022/06/15 10:19:32;;;;;;;4.00;2.28;;;;;;;20.89;59.60;100936.56;6182488;28;20050;-93
2022/06/15 10:22:41;;;;;;;2.95;1.75;;;;;;;21.07;62.70;100937.06;6163067;28;20147;-94
2022/06/15 10:25:50;;;;;;;5.03;1.92;;;;;;;21.35;58.16;100933.00;6170982;28;20058;-93
2022/06/15 10:28:53;;;;;;;6.65;2.20;;;;;;;21.45;56.80;100933.56;6204615;28;20451;-94
2022/06/15 10:31:58;;;;;;;4.68;2.35;;;;;;;21.50;57.25;100934.63;6234619;28;20041;-95
2022/06/15 10:35:18;;;;;;;6.03;2.40;;;;;;;21.51;57.81;100932.81;6233031;28;20050;-94
2022/06/15 10:38:21;;;;;;;3.90;2.03;;;;;;;21.60;56.51;100926.44;6229711;28;20102;-94
2022/06/15 10:41:46;;;;;;;6.78;2.30;;;;;;;21.75;54.17;100930.91;6224351;28;20084;-94
2022/06/15 10:45:19;;;;;;;5.28;1.98;;;;;;;21.88;54.07;100931.03;6225689;28;20041;-94
2022/06/15 10:48:45;;;;;;;12.10;6.88;;;;;;;21.93;53.98;100929.47;6225736;28;20064;-94
2022/06/15 10:51:48;;;;;;;6.38;2.47;;;;;;;21.97;54.33;100921.22;6209560;28;20161;-94
2022/06/15 11:02:43;;;;;;;4.80;2.33;;;;;;;22.04;52.54;100908.91;6227271;28;20060;-94
2022/06/15 11:05:48;;;;;;;5.35;2.55;;;;;;;22.23;54.74;100908.31;6228419;28;20119;-94
2022/06/15 11:08:56;;;;;;;4.60;2.53;;;;;;;22.34;54.87;100910.44;6228816;28;20076;-95
2022/06/15 11:12:06;;;;;;;3.60;2.17;;;;;;;22.50;54.48;100904.09;6242514;28;20034;-94
2022/06/15 11:19:05;;;;;;;3.55;2.28;;;;;;;22.69;51.85;100902.63;6225615;28;20123;-94
2022/06/15 11:22:13;;;;;;;7.05;2.50;;;;;;;22.70;50.67;100892.88;6228603;28;20438;-94
2022/06/15 11:25:25;;;;;;;3.70;2.63;;;;;;;22.76;52.07;100897.41;6228180;28;20044;-90
2022/06/15 11:28:33;;;;;;;3.60;1.92;;;;;;;22.90;48.88;100888.53;6228459;28;20466;-88
2022/06/15 11:31:38;;;;;;;4.97;2.90;;;;;;;23.08;49.63;100896.00;6230269;28;20049;-90
2022/06/15 11:35:08;;;;;;;4.63;2.00;;;;;;;23.31;51.16;100887.78;6227475;28;20076;-90
2022/06/15 11:38:43;;;;;;;4.47;2.10;;;;;;;23.59;51.52;100890.34;6220384;28;20045;-90
2022/06/15 11:41:51;;;;;;;4.57;1.95;;;;;;;23.71;50.04;100887.94;6231142;28;20048;-90
2022/06/15 11:44:53;;;;;;;9.65;2.47;;;;;;;23.81;45.87;100887.59;6232086;28;20044;-90
2022/06/15 11:48:20;;;;;;;5.03;2.03;;;;;;;23.91;44.51;100874.81;6237366;28;20135;-89
2022/06/15 11:51:58;;;;;;;2.40;1.60;;;;;;;23.98;47.64;100870.34;6234578;28;20049;-90
2022/06/15 11:55:32;;;;;;;4.55;2.22;;;;;;;24.37;46.31;100858.19;6224892;28;20049;-89
2022/06/15 11:59:05;;;;;;;2.80;2.00;;;;;;;24.78;42.96;100864.25;6232499;28;20049;-89
2022/06/15 12:02:52;;;;;;;3.92;2.03;;;;;;;25.14;46.04;100875.19;6232655;28;20045;-89
2022/06/15 12:06:03;;;;;;;6.32;2.08;;;;;;;25.37;41.71;100863.31;6230811;28;20479;-89
2022/06/15 12:09:31;;;;;;;2.78;1.90;;;;;;;25.53;44.12;100860.16;6229270;28;20580;-89
2022/06/15 12:12:52;;;;;;;9.68;2.10;;;;;;;25.68;44.58;100859.06;6227918;28;20142;-89
2022/06/15 12:16:15;;;;;;;5.45;2.20;;;;;;;25.81;42.29;100861.63;6229176;28;20192;-89
2022/06/15 12:19:30;;;;;;;4.85;2.10;;;;;;;26.01;43.65;100853.56;6227012;28;20386;-90
2022/06/15 12:23:09;;;;;;;5.43;2.00;;;;;;;26.34;43.25;100849.84;6231743;28;20244;-89
2022/06/15 12:26:36;;;;;;;3.30;1.85;;;;;;;26.54;39.89;100839.88;6235747;28;20055;-89
2022/06/15 12:29:51;;;;;;;4.78;1.90;;;;;;;26.40;38.84;100847.13;6225453;28;20053;-90
2022/06/15 12:33:31;;;;;;;4.50;2.00;;;;;;;26.33;39.41;100845.56;6232320;28;20048;-90
2022/06/15 12:36:56;;;;;;;4.22;1.98;;;;;;;26.57;39.92;100838.63;6225747;28;20041;-89
2022/06/15 12:40:28;;;;;;;3.13;1.73;;;;;;;26.90;38.12;100834.81;6231908;28;20041;-89
2022/06/15 12:43:33;;;;;;;3.15;1.75;;;;;;;27.10;37.96;100843.34;6229642;28;20041;-89
2022/06/15 12:46:36;;;;;;;3.38;1.60;;;;;;;27.12;38.34;100843.94;6230197;28;20569;-89
2022/06/15 12:49:57;;;;;;;3.53;2.13;;;;;;;27.31;39.36;100838.66;6228583;28;20092;-89
2022/06/15 12:53:30;;;;;;;5.65;1.83;;;;;;;27.49;38.70;100842.06;6232539;28;20046;-89
2022/06/15 12:57:01;;;;;;;4.53;1.65;;;;;;;27.54;36.14;100836.09;6236016;28;20731;-89
2022/06/15 13:00:18;;;;;;;4.10;1.80;;;;;;;27.55;38.75;100829.72;6228335;28;20402;-89
2022/06/15 13:03:46;;;;;;;5.63;2.03;;;;;;;27.83;42.19;100837.13;6231250;28;20292;-90
2022/06/15 13:07:19;;;;;;;3.45;1.80;;;;;;;28.05;41.00;100825.91;6226231;28;20041;-89
2022/06/15 13:10:25;;;;;;;5.85;1.90;;;;;;;28.34;39.10;100830.34;6232055;28;20040;-89
2022/06/15 13:13:32;;;;;;;3.55;1.80;;;;;;;28.56;39.50;100827.94;6229481;28;20501;-89
2022/06/15 13:16:55;;;;;;;4.05;1.70;;;;;;;28.75;38.81;100815.28;6230982;28;20034;-90
2022/06/15 13:20:09;;;;;;;3.05;1.90;;;;;;;28.95;36.94;100820.22;6232597;28;20045;-89
2022/06/15 13:23:17;;;;;;;3.63;1.80;;;;;;;28.93;36.33;100822.31;6221011;28;20140;-90
2022/06/15 13:26:54;;;;;;;3.33;1.90;;;;;;;28.92;34.06;100814.56;6219332;28;20030;-90
2022/06/15 13:30:18;;;;;;;3.50;1.88;;;;;;;28.91;34.53;100821.72;6228699;28;20045;-92
2022/06/15 13:33:46;;;;;;;4.72;2.00;;;;;;;28.97;36.89;100812.00;6244331;28;20045;-92
2022/06/15 13:37:26;;;;;;;4.03;1.70;;;;;;;29.01;34.62;100807.00;6241079;28;20482;-91
2022/06/15 13:41:02;;;;;;;5.15;2.13;;;;;;;28.96;36.08;100810.38;6144810;28;20547;-92
2022/06/15 13:44:12;;;;;;;3.50;2.13;;;;;;;29.01;34.98;100807.00;6147132;28;20050;-91
2022/06/15 13:47:14;;;;;;;3.55;1.80;;;;;;;29.02;34.39;100804.09;6175627;28;20065;-92
2022/06/15 13:50:45;;;;;;;2.10;1.70;;;;;;;29.08;33.75;100813.03;6173627;28;20477;-92
2022/06/15 13:54:02;;;;;;;5.97;1.90;;;;;;;29.17;34.34;100808.97;6176499;28;20058;-91
2022/06/15 13:57:32;;;;;;;4.30;2.25;;;;;;;29.26;33.57;100812.03;6154393;28;20046;-91
2022/06/15 14:00:42;;;;;;;3.38;1.63;;;;;;;29.39;33.45;100807.22;6167606;28;20447;-92
2022/06/15 14:04:15;;;;;;;4.35;1.67;;;;;;;29.45;34.55;100807.31;6163244;28;20058;-91
2022/06/15 14:07:46;;;;;;;3.08;1.92;;;;;;;30.11;35.43;100803.09;6169312;28;20042;-93
2022/06/15 14:11:12;;;;;;;2.90;1.85;;;;;;;30.54;34.80;100800.78;6154080;28;20146;-92
2022/06/15 14:14:36;;;;;;;3.92;2.08;;;;;;;30.68;33.51;100797.50;6173408;28;20053;-92
2022/06/15 14:17:53;;;;;;;3.35;1.90;;;;;;;30.50;32.64;100799.66;6208011;28;20053;-92
2022/06/15 14:20:55;;;;;;;3.40;2.00;;;;;;;30.40;31.92;100781.63;6218882;28;20562;-91
2022/06/15 14:24:13;;;;;;;4.40;2.17;;;;;;;30.33;32.60;100789.81;6222982;28;20418;-92
2022/06/15 14:27:28;;;;;;;3.58;2.03;;;;;;;30.40;33.71;100786.97;6226475;28;20438;-91
2022/06/15 14:30:33;;;;;;;3.97;1.95;;;;;;;30.49;32.42;100788.16;6230789;28;20033;-92
2022/06/15 14:33:36;;;;;;;3.35;1.88;;;;;;;30.45;34.50;100779.81;6234768;28;20037;-91
2022/06/15 14:36:38;;;;;;;4.45;2.00;;;;;;;30.38;32.50;100778.38;6231078;28;20065;-90
2022/06/15 14:39:51;;;;;;;4.45;2.28;;;;;;;30.30;33.11;100776.16;6235158;28;20042;-91
2022/06/15 14:42:59;;;;;;;2.60;2.00;;;;;;;30.54;34.09;100772.19;6229574;28;20551;-92
2022/06/15 14:46:02;;;;;;;4.68;2.35;;;;;;;30.59;34.20;100779.47;6226813;28;20030;-92
2022/06/15 14:49:05;;;;;;;3.60;2.05;;;;;;;30.39;32.99;100775.47;6214759;28;20111;-92
2022/06/15 14:52:28;;;;;;;4.55;1.95;;;;;;;30.15;32.24;100768.69;6224246;28;20041;-90
2022/06/15 14:55:33;;;;;;;3.75;2.25;;;;;;;30.22;33.41;100774.69;6218254;28;20049;-92
2022/06/15 14:58:35;;;;;;;3.17;2.30;;;;;;;30.20;33.67;100785.59;6227261;28;20136;-92
2022/06/15 15:01:55;;;;;;;2.95;1.90;;;;;;;30.13;34.08;100778.81;6227613;28;20041;-91